Williamstown, MA

1:28 PM EST on November 28, 2014 (GMT -0500)
Five Corners Historic District | Change Station
CLOSE
Current Station
Personal Weather Station
Location: Williamstown, MA
Elevation: 902 ft
Nearby Weather Stations

Elev 902 ft 42.66 °N, 73.24 °W | Updated 17 seconds ago

Overcast
Overcast
28.8 °F
Feels Like 29 °F
N
3.0
Wind Variable Wind from SE
Gusts 3.0 mph

Today
High -- | Low -- °F
--% Chance of Precip.
Yesterday
High -- | Low -- °F
Precip. -- in
7:00 AM 4:21 PM
Waxing Crescent, 42% visible
Pressure 30.12 in
Visibility 10.0 miles
Clouds Scattered Clouds 3800 ft
Overcast 4600 ft
Windchill 29 °F
Dew Point 18 °F
Humidity 63%
Rainfall 0.00 in
Snow Depth Not available.
UV 1 out of 12
Pollen .10 out of 12
Air Quality Not available.
Flu Activity Not available.
METAR KAQW 281752Z AUTO 32006KT 10SM SCT038 OVC046 M02/M07 A3009 RMK AO2 SLP198 T10221072 11022 21033 58007 $

More Conditions Fewer Conditions

Pressure 30.12 in
Visibility 10.0 miles
Clouds Scattered Clouds 3800 ft
Overcast 4600 ft
Windchill 29 °F
Dew Point 18 °F
Humidity 63%
Rainfall 0.00 in
Snow Depth Not available.
UV 1 out of 12
Pollen .10 out of 12
Air Quality Not available.
Flu Activity Not available.
METAR KAQW 281752Z AUTO 32006KT 10SM SCT038 OVC046 M02/M07 A3009 RMK AO2 SLP198 T10221072 11022 21033 58007 $

More Conditions Fewer Conditions

10-Day Weather Forecast

Almanac

Astronomy

Nov. 28, 2014 Rise Set
Actual Time
Civil Twilight
Nautical Twilight
Astronomical Twilight
Moon
Length of Visible Light
Length of Day
Tomorrow will be .
, % of the Moon is Illuminated

Today's Extremes

State Highs State Lows

Community

WunderPhotos

Upload Photos

1,774,251 photos uploaded!

WunderBlogs® & News

Nearby

Air Quality

  Air Quality AQ Index Pollutant
Not available.

Snow Depth

Station Depth Elevation

Earthquake Activity

City Distance Mag. Time & Date
Minimum magnitude displayed is 2.5.

Coastal Water Temperatures

Place Temperature

Nearby Weather Stations